METAR Data
IDs: Format: Raw Decoded Include TAF

Data at: 1101 UTC 17 Jun 2019

KHWD 171054Z AUTO 00000KT 10SM OVC009 14/12 A2982 RMK AO2 SLP107 T01440117
No TAF found for KHWD

KRDD 171053Z AUTO 00000KT 10SM CLR 22/19 A2977 RMK AO2 SLP075 T02220189

KRDD 170530Z 1706/1806 VRB05KT P6SM SCT250
  FM170800 34005KT P6SM SCT250
  FM171600 36012G22KT P6SM SCT250
  FM180300 36008KT P6SM SCT250


KRTS 171055Z AUTO 34006KT 10SM CLR 12/05 A3003 RMK AO2
No TAF found for KRTS